createdAt,value
2023-03-01T00:01:22.356Z,-5.41
2023-03-01T00:03:49.616Z,-5.42
2023-03-01T00:06:16.998Z,-5.41
2023-03-01T00:08:43.920Z,-5.41
2023-03-01T00:11:13.907Z,-5.44
2023-03-01T00:13:42.057Z,-5.44
2023-03-01T00:16:14.029Z,-5.45
2023-03-01T00:18:41.444Z,-5.48
2023-03-01T00:21:08.764Z,-5.46
2023-03-01T00:23:36.320Z,-5.45
2023-03-01T00:26:07.417Z,-5.48
2023-03-01T00:28:35.450Z,-5.47
2023-03-01T00:31:10.599Z,-5.48
2023-03-01T00:33:37.523Z,-5.54
2023-03-01T00:36:05.091Z,-5.58
2023-03-01T00:38:35.224Z,-5.62
2023-03-01T00:41:10.265Z,-5.65
2023-03-01T00:43:40.179Z,-5.68
2023-03-01T00:46:15.195Z,-5.72
2023-03-01T00:48:42.631Z,-5.78
2023-03-01T00:51:13.232Z,-5.86
2023-03-01T00:53:40.451Z,-5.88
2023-03-01T00:56:09.719Z,-5.89
2023-03-01T00:58:36.961Z,-5.88
2023-03-01T01:01:20.861Z,-5.86
2023-03-01T01:03:50.891Z,-5.88
2023-03-01T01:06:23.863Z,-5.91
2023-03-01T01:08:51.541Z,-5.93
2023-03-01T01:11:19.262Z,-5.88
2023-03-01T01:13:48.159Z,-5.85
2023-03-01T01:16:16.549Z,-5.87
2023-03-01T01:18:44.184Z,-5.88
2023-03-01T01:21:14.865Z,-5.90
2023-03-01T01:23:43.392Z,-5.92
2023-03-01T01:26:11.601Z,-5.95
2023-03-01T01:28:38.912Z,-5.96
2023-03-01T01:31:06.426Z,-5.98
2023-03-01T01:33:34.090Z,-6.00
2023-03-01T01:36:01.465Z,-6.01
2023-03-01T01:38:28.449Z,-6.02
2023-03-01T01:40:55.784Z,-6.04
2023-03-01T01:43:26.878Z,-6.12
2023-03-01T01:45:58.211Z,-6.17
2023-03-01T01:48:41.298Z,-6.18
2023-03-01T01:51:18.163Z,-6.24
2023-03-01T01:53:47.917Z,-6.27
2023-03-01T01:56:18.029Z,-6.25
2023-03-01T01:58:45.963Z,-6.25
2023-03-01T02:01:13.157Z,-6.18
2023-03-01T02:03:43.433Z,-6.16
2023-03-01T02:06:30.183Z,-6.13
2023-03-01T02:09:03.539Z,-6.11
2023-03-01T02:11:33.314Z,-6.10
2023-03-01T02:14:00.494Z,-6.07
2023-03-01T02:16:28.149Z,-6.07
2023-03-01T02:18:55.289Z,-6.07
2023-03-01T02:21:25.295Z,-6.06
2023-03-01T02:23:52.306Z,-6.02
2023-03-01T02:26:46.635Z,-5.98
2023-03-01T02:29:13.747Z,-5.99
2023-03-01T02:31:43.779Z,-5.99
2023-03-01T02:34:17.950Z,-6.02
2023-03-01T02:36:56.092Z,-6.00
2023-03-01T02:39:27.784Z,-6.00
2023-03-01T02:41:57.211Z,-6.02
2023-03-01T02:44:24.435Z,-6.07
2023-03-01T02:46:55.376Z,-6.11
2023-03-01T02:49:26.171Z,-6.13
2023-03-01T02:52:09.702Z,-6.14
2023-03-01T02:54:45.594Z,-6.18
2023-03-01T02:57:13.215Z,-6.19
2023-03-01T02:59:41.297Z,-6.20
2023-03-01T03:02:21.667Z,-6.23
2023-03-01T03:04:48.744Z,-6.21
2023-03-01T03:07:15.881Z,-6.21
2023-03-01T03:09:42.783Z,-6.17
2023-03-01T03:12:10.007Z,-6.13
2023-03-01T03:14:36.890Z,-6.12
2023-03-01T03:17:07.666Z,-6.13
2023-03-01T03:19:34.618Z,-6.13
2023-03-01T03:22:02.850Z,-6.14
2023-03-01T03:24:29.799Z,-6.19
2023-03-01T03:26:56.986Z,-6.21
2023-03-01T03:29:23.828Z,-6.24
2023-03-01T03:31:51.121Z,-6.29
2023-03-01T03:34:19.122Z,-6.30
2023-03-01T03:36:46.452Z,-6.30
2023-03-01T03:39:13.362Z,-6.29
2023-03-01T03:41:40.516Z,-6.29
2023-03-01T03:44:07.394Z,-6.33
2023-03-01T03:46:34.997Z,-6.34
2023-03-01T03:49:01.997Z,-6.35
2023-03-01T03:51:29.137Z,-6.34
2023-03-01T03:53:56.047Z,-6.32
2023-03-01T03:56:28.654Z,-6.27
2023-03-01T03:58:55.952Z,-6.28
2023-03-01T04:01:23.375Z,-6.37
2023-03-01T04:03:55.476Z,-6.43
2023-03-01T04:06:22.924Z,-6.45
2023-03-01T04:08:52.115Z,-6.50
2023-03-01T04:11:28.219Z,-6.49
2023-03-01T04:13:58.021Z,-6.51
2023-03-01T04:16:26.119Z,-6.50
2023-03-01T04:18:57.712Z,-6.48
2023-03-01T04:21:24.892Z,-6.50
2023-03-01T04:23:53.706Z,-6.52
2023-03-01T04:26:21.589Z,-6.57
2023-03-01T04:28:50.463Z,-6.60
2023-03-01T04:31:22.108Z,-6.62
2023-03-01T04:33:54.577Z,-6.69
2023-03-01T04:36:27.804Z,-6.73
2023-03-01T04:38:55.592Z,-6.76
2023-03-01T04:41:25.144Z,-6.79
2023-03-01T04:43:52.298Z,-6.83
2023-03-01T04:46:21.046Z,-6.82
2023-03-01T04:48:48.482Z,-6.87
2023-03-01T04:51:16.806Z,-6.92
2023-03-01T04:53:44.769Z,-6.98
2023-03-01T04:56:12.563Z,-7.06
2023-03-01T04:58:39.433Z,-7.07
2023-03-01T05:01:16.518Z,-7.09
2023-03-01T05:03:45.177Z,-7.11
2023-03-01T05:06:12.958Z,-7.06
2023-03-01T05:08:40.791Z,-7.01
2023-03-01T05:11:10.117Z,-6.98
2023-03-01T05:13:39.102Z,-6.94
2023-03-01T05:16:08.168Z,-6.91
2023-03-01T05:18:36.008Z,-6.86
2023-03-01T05:21:09.556Z,-6.86
2023-03-01T05:23:37.313Z,-6.84
2023-03-01T05:26:09.411Z,-6.85
2023-03-01T05:28:38.996Z,-6.87
2023-03-01T05:31:10.747Z,-6.79
2023-03-01T05:33:39.199Z,-6.61
2023-03-01T05:36:08.345Z,-6.42
2023-03-01T05:38:35.267Z,-6.23
2023-03-01T05:41:02.836Z,-6.05
2023-03-01T05:43:35.350Z,-5.82
2023-03-01T05:46:02.813Z,-5.58
2023-03-01T05:48:30.189Z,-5.36
2023-03-01T05:51:01.442Z,-5.13
2023-03-01T05:53:28.642Z,-4.78
2023-03-01T05:55:55.771Z,-4.53
2023-03-01T05:58:22.833Z,-4.34
2023-03-01T06:00:50.351Z,-4.11
2023-03-01T06:03:18.721Z,-3.97
2023-03-01T06:05:46.178Z,-3.72
2023-03-01T06:08:14.134Z,-3.56
2023-03-01T06:10:41.898Z,-3.41
2023-03-01T06:13:09.013Z,-3.08
2023-03-01T06:15:36.400Z,-2.70
2023-03-01T06:18:03.441Z,-2.37
2023-03-01T06:20:30.740Z,-2.01
2023-03-01T06:22:58.254Z,-1.74
2023-03-01T06:25:27.843Z,-1.55
2023-03-01T06:27:54.953Z,-1.26
2023-03-01T06:30:24.034Z,-0.90
2023-03-01T06:32:51.014Z,-0.37
2023-03-01T06:35:19.687Z,0.14
2023-03-01T06:37:48.224Z,0.41
2023-03-01T06:40:17.134Z,0.88
2023-03-01T06:42:48.296Z,1.35
2023-03-01T06:45:16.165Z,1.81
2023-03-01T06:47:43.204Z,2.28
2023-03-01T06:50:11.577Z,2.64
2023-03-01T06:52:38.766Z,2.90
2023-03-01T06:55:06.859Z,3.01
2023-03-01T06:57:33.842Z,3.03
2023-03-01T07:00:01.208Z,3.29
2023-03-01T07:02:28.246Z,3.52
2023-03-01T07:04:55.494Z,3.96
2023-03-01T07:07:22.465Z,4.46
2023-03-01T07:09:50.025Z,4.77
2023-03-01T07:12:17.388Z,5.26
2023-03-01T07:14:45.232Z,5.78
2023-03-01T07:17:12.082Z,6.13
2023-03-01T07:19:39.323Z,6.34
2023-03-01T07:22:08.850Z,6.31
2023-03-01T07:24:36.366Z,6.23
2023-03-01T07:27:03.516Z,6.51
2023-03-01T07:29:31.346Z,6.72
2023-03-01T07:31:58.281Z,6.42
2023-03-01T07:34:25.711Z,6.15
2023-03-01T07:36:53.435Z,5.80
2023-03-01T07:39:20.801Z,5.72
2023-03-01T07:41:47.751Z,6.14
2023-03-01T07:44:14.967Z,6.93
2023-03-01T07:46:42.096Z,7.82
2023-03-01T07:49:09.373Z,8.51
2023-03-01T07:51:36.336Z,9.02
2023-03-01T07:54:03.666Z,9.65
2023-03-01T07:56:30.954Z,10.19
2023-03-01T07:59:00.970Z,10.82
2023-03-01T08:01:28.108Z,11.67
2023-03-01T08:03:55.350Z,12.47
2023-03-01T08:06:22.476Z,13.34
2023-03-01T08:08:49.713Z,14.01
2023-03-01T08:11:17.057Z,14.68
2023-03-01T08:13:44.830Z,15.38
2023-03-01T08:16:15.520Z,15.74
2023-03-01T08:18:44.198Z,16.20
2023-03-01T08:21:17.276Z,16.65
2023-03-01T08:23:44.906Z,17.20
2023-03-01T08:26:15.065Z,17.69
2023-03-01T08:28:43.124Z,18.26
2023-03-01T08:31:29.712Z,18.80
2023-03-01T08:34:00.596Z,19.30
2023-03-01T08:36:34.071Z,19.62
2023-03-01T08:39:01.463Z,19.98
2023-03-01T08:41:28.606Z,20.33
2023-03-01T08:43:59.818Z,20.63
2023-03-01T08:46:32.923Z,20.66
2023-03-01T08:49:00.668Z,20.46
2023-03-01T08:51:28.052Z,20.40
2023-03-01T08:53:55.294Z,20.37
2023-03-01T08:56:22.189Z,20.33
2023-03-01T08:58:50.202Z,20.07
2023-03-01T09:01:19.812Z,19.80
2023-03-01T09:03:47.533Z,19.93
2023-03-01T09:06:15.533Z,20.18
2023-03-01T09:08:45.495Z,20.25
2023-03-01T09:11:16.442Z,20.12
2023-03-01T09:13:44.578Z,19.81
2023-03-01T09:16:14.192Z,19.66
2023-03-01T09:18:44.822Z,19.85
2023-03-01T09:21:17.388Z,19.92
2023-03-01T09:23:46.854Z,20.27
2023-03-01T09:26:22.372Z,20.74
2023-03-01T09:28:52.802Z,20.92
2023-03-01T09:31:24.678Z,21.05
2023-03-01T09:33:56.949Z,20.79
2023-03-01T09:36:31.612Z,20.47
2023-03-01T09:39:00.244Z,20.84
2023-03-01T09:41:47.771Z,21.22
2023-03-01T09:44:37.174Z,21.22
2023-03-01T09:47:04.820Z,21.13
2023-03-01T09:49:40.078Z,21.36
2023-03-01T09:52:39.379Z,21.11
2023-03-01T09:55:17.340Z,20.82
2023-03-01T09:57:52.288Z,20.92
2023-03-01T10:00:48.428Z,21.22
2023-03-01T10:04:12.347Z,21.74
2023-03-01T10:06:51.872Z,22.47
2023-03-01T10:09:19.857Z,22.94
2023-03-01T10:11:51.992Z,23.01
2023-03-01T10:14:33.792Z,22.83
2023-03-01T10:17:26.970Z,22.81
2023-03-01T10:19:53.922Z,22.80
2023-03-01T10:22:30.396Z,22.66
2023-03-01T10:25:04.222Z,22.55
2023-03-01T10:27:48.723Z,22.69
2023-03-01T10:30:36.511Z,22.60
2023-03-01T10:33:20.600Z,22.93
2023-03-01T10:35:49.524Z,22.88
2023-03-01T10:38:20.341Z,22.88
2023-03-01T10:40:53.493Z,22.47
2023-03-01T10:43:21.750Z,22.90
2023-03-01T10:45:49.303Z,23.04
2023-03-01T10:48:28.656Z,22.57
2023-03-01T10:50:58.620Z,22.83
2023-03-01T10:53:30.680Z,22.92
2023-03-01T10:56:01.545Z,22.96
2023-03-01T10:58:29.899Z,23.16
2023-03-01T11:01:05.947Z,23.42
2023-03-01T11:03:38.895Z,23.65
2023-03-01T11:06:12.142Z,23.68
2023-03-01T11:08:48.273Z,23.76
2023-03-01T11:11:36.026Z,23.52
2023-03-01T11:14:26.414Z,23.34
2023-03-01T11:17:04.515Z,23.11
2023-03-01T11:19:32.335Z,23.32
2023-03-01T11:22:05.407Z,23.38
2023-03-01T11:24:42.273Z,23.07
2023-03-01T11:27:32.885Z,22.38
2023-03-01T11:30:00.006Z,22.44
2023-03-01T11:32:34.225Z,22.40
2023-03-01T11:35:11.428Z,22.31
2023-03-01T11:37:45.487Z,22.08
2023-03-01T11:40:18.269Z,22.06
2023-03-01T11:42:51.116Z,22.36
2023-03-01T11:45:18.390Z,21.56
2023-03-01T11:47:57.981Z,21.42
2023-03-01T11:50:39.679Z,21.20
2023-03-01T11:53:27.928Z,20.90
2023-03-01T11:56:26.399Z,20.76
2023-03-01T11:59:30.634Z,20.73
2023-03-01T12:02:06.601Z,21.04
2023-03-01T12:05:11.171Z,20.58
2023-03-01T12:08:05.763Z,20.37
2023-03-01T12:11:01.262Z,19.27
2023-03-01T12:13:34.397Z,18.74
2023-03-01T12:16:13.082Z,18.53
2023-03-01T12:19:02.874Z,18.32
2023-03-01T12:21:43.477Z,19.01
2023-03-01T12:24:30.034Z,19.28
2023-03-01T12:27:34.682Z,19.48
2023-03-01T12:30:23.766Z,19.71
2023-03-01T12:33:15.585Z,19.56
2023-03-01T12:36:15.586Z,19.38
2023-03-01T12:38:44.265Z,19.85
2023-03-01T12:41:20.308Z,19.43
2023-03-01T12:44:02.320Z,19.16
2023-03-01T12:47:00.521Z,18.96
2023-03-01T12:49:37.330Z,19.09
2023-03-01T12:52:30.395Z,18.84
2023-03-01T12:55:02.210Z,19.14
2023-03-01T12:57:41.574Z,19.07
2023-03-01T13:00:36.750Z,18.97
2023-03-01T13:03:22.940Z,19.10
2023-03-01T13:05:55.697Z,18.81
2023-03-01T13:08:34.135Z,18.37
2023-03-01T13:11:04.749Z,18.46
2023-03-01T13:13:32.715Z,18.32
2023-03-01T13:16:22.524Z,18.31
2023-03-01T13:18:49.806Z,18.49
2023-03-01T13:21:31.496Z,18.66
2023-03-01T13:23:58.671Z,18.76
2023-03-01T13:26:25.628Z,18.81
2023-03-01T13:28:58.307Z,18.64
2023-03-01T13:31:48.490Z,18.44
2023-03-01T13:34:53.023Z,18.56
2023-03-01T13:37:27.000Z,18.81
2023-03-01T13:39:54.285Z,18.70
2023-03-01T13:42:38.493Z,18.48
2023-03-01T13:45:19.977Z,18.43
2023-03-01T13:47:50.355Z,18.35
2023-03-01T13:50:22.163Z,18.19
2023-03-01T13:53:06.115Z,17.98
2023-03-01T13:55:44.001Z,17.71
2023-03-01T13:58:31.789Z,17.42
2023-03-01T14:01:08.270Z,17.29
2023-03-01T14:03:42.842Z,17.03
2023-03-01T14:06:19.101Z,16.60
2023-03-01T14:08:50.584Z,16.29
2023-03-01T14:11:39.357Z,15.56
2023-03-01T14:14:21.833Z,15.01
2023-03-01T14:17:14.160Z,14.50
2023-03-01T14:19:45.930Z,14.03
2023-03-01T14:22:26.173Z,13.53
2023-03-01T14:24:56.857Z,12.89
2023-03-01T14:27:45.801Z,12.35
2023-03-01T14:30:20.313Z,11.68
2023-03-01T14:33:07.425Z,11.10
2023-03-01T14:35:36.447Z,10.67
2023-03-01T14:38:03.794Z,10.17
2023-03-01T14:40:37.113Z,9.83
2023-03-01T14:43:12.631Z,9.42
2023-03-01T14:45:39.692Z,9.07
2023-03-01T14:48:08.599Z,8.78
2023-03-01T14:50:37.371Z,8.50
2023-03-01T14:53:08.880Z,8.26
2023-03-01T14:55:39.791Z,8.08
2023-03-01T14:58:12.604Z,7.86
2023-03-01T15:00:44.689Z,7.60
2023-03-01T15:03:26.894Z,7.33
2023-03-01T15:05:54.727Z,7.14
2023-03-01T15:08:25.695Z,6.96
2023-03-01T15:11:02.963Z,6.79
2023-03-01T15:13:35.044Z,6.65
2023-03-01T15:16:10.735Z,6.47
2023-03-01T15:18:38.944Z,6.33
2023-03-01T15:21:30.669Z,6.20
2023-03-01T15:24:20.463Z,6.06
2023-03-01T15:26:54.820Z,5.93
2023-03-01T15:29:31.039Z,5.84
2023-03-01T15:32:06.068Z,5.72
2023-03-01T15:34:38.495Z,5.59
2023-03-01T15:37:28.414Z,5.49
2023-03-01T15:39:58.149Z,5.38
2023-03-01T15:42:28.028Z,5.27
2023-03-01T15:45:18.042Z,5.08
2023-03-01T15:47:51.142Z,4.96
2023-03-01T15:50:38.586Z,4.85
2023-03-01T15:53:09.170Z,4.74
2023-03-01T15:55:36.639Z,4.60
2023-03-01T15:58:21.504Z,4.33
2023-03-01T16:01:00.906Z,4.13
2023-03-01T16:03:28.561Z,3.89
2023-03-01T16:05:55.801Z,3.65
2023-03-01T16:08:22.737Z,3.41
2023-03-01T16:10:52.254Z,3.22
2023-03-01T16:13:20.306Z,3.00
2023-03-01T16:15:48.203Z,2.78
2023-03-01T16:18:15.143Z,2.58
2023-03-01T16:20:42.302Z,2.38
2023-03-01T16:23:11.366Z,2.19
2023-03-01T16:25:39.008Z,1.97
2023-03-01T16:28:10.164Z,1.70
2023-03-01T16:30:40.557Z,1.44
2023-03-01T16:33:26.828Z,1.22
2023-03-01T16:35:56.473Z,1.08
2023-03-01T16:38:23.594Z,0.92
2023-03-01T16:40:52.565Z,0.74
2023-03-01T16:43:19.520Z,0.54
2023-03-01T16:45:47.627Z,0.42
2023-03-01T16:48:15.177Z,0.34
2023-03-01T16:50:42.548Z,0.20
2023-03-01T16:53:09.617Z,0.12
2023-03-01T16:55:36.963Z,0.05
2023-03-01T16:58:05.410Z,-0.07
2023-03-01T17:00:32.719Z,-0.15
2023-03-01T17:02:59.726Z,-0.25
2023-03-01T17:05:27.234Z,-0.32
2023-03-01T17:07:56.704Z,-0.42
2023-03-01T17:10:24.200Z,-0.56
2023-03-01T17:12:51.672Z,-0.63
2023-03-01T17:15:18.971Z,-0.67
2023-03-01T17:17:45.915Z,-0.74
2023-03-01T17:20:13.780Z,-0.81
2023-03-01T17:22:40.659Z,-0.85
2023-03-01T17:25:12.297Z,-0.87
2023-03-01T17:27:40.001Z,-0.91
2023-03-01T17:30:11.425Z,-1.00
2023-03-01T17:32:38.632Z,-1.04
2023-03-01T17:35:06.521Z,-1.10
2023-03-01T17:37:33.653Z,-1.11
2023-03-01T17:40:00.808Z,-1.14
2023-03-01T17:42:27.753Z,-1.19
2023-03-01T17:44:54.952Z,-1.23
2023-03-01T17:47:21.853Z,-1.25
2023-03-01T17:49:49.020Z,-1.29
2023-03-01T17:52:16.052Z,-1.33
2023-03-01T17:54:43.273Z,-1.32
2023-03-01T17:57:10.178Z,-1.36
2023-03-01T17:59:37.680Z,-1.34
2023-03-01T18:02:04.586Z,-1.36
2023-03-01T18:04:32.587Z,-1.39
2023-03-01T18:07:00.032Z,-1.41
2023-03-01T18:09:28.386Z,-1.48
2023-03-01T18:11:55.341Z,-1.54
2023-03-01T18:14:22.757Z,-1.59
2023-03-01T18:16:50.962Z,-1.64
2023-03-01T18:19:18.289Z,-1.67
2023-03-01T18:21:45.413Z,-1.69
2023-03-01T18:24:12.597Z,-1.72
2023-03-01T18:26:40.361Z,-1.74
2023-03-01T18:29:08.373Z,-1.78
2023-03-01T18:31:35.570Z,-1.85
2023-03-01T18:34:02.998Z,-1.86
2023-03-01T18:36:33.240Z,-1.90
2023-03-01T18:39:03.508Z,-1.91
2023-03-01T18:41:30.860Z,-1.92
2023-03-01T18:43:58.585Z,-1.94
2023-03-01T18:46:26.024Z,-1.98
2023-03-01T18:48:54.507Z,-1.99
2023-03-01T18:51:25.496Z,-2.02
2023-03-01T18:53:52.956Z,-2.05
2023-03-01T18:56:19.837Z,-2.06
2023-03-01T18:58:47.287Z,-2.09
2023-03-01T19:01:20.080Z,-2.13
2023-03-01T19:03:47.893Z,-2.17
2023-03-01T19:06:15.272Z,-2.19
2023-03-01T19:08:44.437Z,-2.22
2023-03-01T19:11:13.258Z,-2.23
2023-03-01T19:13:41.005Z,-2.24
2023-03-01T19:16:16.405Z,-2.23
2023-03-01T19:18:50.256Z,-2.25
2023-03-01T19:21:19.934Z,-2.25
2023-03-01T19:23:48.870Z,-2.27
2023-03-01T19:26:18.518Z,-2.28
2023-03-01T19:28:46.558Z,-2.32
2023-03-01T19:31:16.750Z,-2.35
2023-03-01T19:33:44.333Z,-2.35
2023-03-01T19:36:14.671Z,-2.36
2023-03-01T19:38:43.141Z,-2.37
2023-03-01T19:41:16.923Z,-2.39
2023-03-01T19:43:45.679Z,-2.40
2023-03-01T19:46:15.055Z,-2.41
2023-03-01T19:48:44.587Z,-2.44
2023-03-01T19:51:12.522Z,-2.47
2023-03-01T19:53:40.765Z,-2.50
2023-03-01T19:56:08.940Z,-2.53
2023-03-01T19:58:36.649Z,-2.57
2023-03-01T20:01:03.680Z,-2.61
2023-03-01T20:03:33.857Z,-2.68
2023-03-01T20:06:02.689Z,-2.73
2023-03-01T20:08:32.072Z,-2.77
2023-03-01T20:11:04.483Z,-2.78
2023-03-01T20:13:31.715Z,-2.80
2023-03-01T20:15:58.806Z,-2.84
2023-03-01T20:18:26.809Z,-2.85
2023-03-01T20:20:54.101Z,-2.84
2023-03-01T20:23:22.213Z,-2.86
2023-03-01T20:25:49.242Z,-2.86
2023-03-01T20:28:17.975Z,-2.89
2023-03-01T20:30:45.801Z,-2.92
2023-03-01T20:33:13.159Z,-2.96
2023-03-01T20:35:43.943Z,-2.98
2023-03-01T20:38:11.177Z,-3.02
2023-03-01T20:40:38.402Z,-3.06
2023-03-01T20:43:05.612Z,-3.13
2023-03-01T20:45:32.518Z,-3.18
2023-03-01T20:47:59.749Z,-3.21
2023-03-01T20:50:26.715Z,-3.25
2023-03-01T20:52:53.984Z,-3.31
2023-03-01T20:55:21.044Z,-3.28
2023-03-01T20:57:48.238Z,-3.26
2023-03-01T21:00:15.454Z,-3.28
2023-03-01T21:02:44.041Z,-3.32
2023-03-01T21:05:11.032Z,-3.35
2023-03-01T21:07:38.371Z,-3.37
2023-03-01T21:10:05.637Z,-3.36
2023-03-01T21:12:32.910Z,-3.36
2023-03-01T21:14:59.847Z,-3.35
2023-03-01T21:17:26.996Z,-3.34
2023-03-01T21:19:53.909Z,-3.35
2023-03-01T21:22:21.070Z,-3.36
2023-03-01T21:24:50.191Z,-3.39
2023-03-01T21:27:18.863Z,-3.43
2023-03-01T21:29:47.144Z,-3.47
2023-03-01T21:32:14.921Z,-3.50
2023-03-01T21:34:42.203Z,-3.55
2023-03-01T21:37:10.790Z,-3.57
2023-03-01T21:39:38.030Z,-3.60
2023-03-01T21:42:06.010Z,-3.61
2023-03-01T21:44:33.800Z,-3.63
2023-03-01T21:47:01.398Z,-3.64
2023-03-01T21:49:28.415Z,-3.65
2023-03-01T21:51:56.082Z,-3.66
2023-03-01T21:54:22.998Z,-3.64
2023-03-01T21:56:51.106Z,-3.60
2023-03-01T21:59:20.958Z,-3.60
2023-03-01T22:01:49.654Z,-3.62
2023-03-01T22:04:17.130Z,-3.62
2023-03-01T22:06:46.835Z,-3.64
2023-03-01T22:09:19.262Z,-3.68
2023-03-01T22:11:54.015Z,-3.70
2023-03-01T22:14:21.906Z,-3.73
2023-03-01T22:16:51.756Z,-3.74
2023-03-01T22:19:18.999Z,-3.80
2023-03-01T22:21:49.886Z,-3.84
2023-03-01T22:24:19.231Z,-3.86
2023-03-01T22:26:48.400Z,-3.92
2023-03-01T22:29:25.313Z,-3.96
2023-03-01T22:31:53.822Z,-4.03
2023-03-01T22:34:21.203Z,-4.09
2023-03-01T22:36:48.946Z,-4.11
2023-03-01T22:39:19.132Z,-4.12
2023-03-01T22:41:47.759Z,-4.14
2023-03-01T22:44:18.260Z,-4.18
2023-03-01T22:46:45.570Z,-4.19
2023-03-01T22:49:12.716Z,-4.16
2023-03-01T22:51:42.459Z,-4.16
2023-03-01T22:54:11.095Z,-4.17
2023-03-01T22:56:39.217Z,-4.20
2023-03-01T22:59:11.455Z,-4.23
2023-03-01T23:01:40.190Z,-4.25
2023-03-01T23:04:07.532Z,-4.25
2023-03-01T23:06:50.219Z,-4.22
2023-03-01T23:09:30.973Z,-4.19
2023-03-01T23:11:59.973Z,-4.16
2023-03-01T23:14:31.247Z,-4.18
2023-03-01T23:17:00.733Z,-4.21
2023-03-01T23:19:28.768Z,-4.22
2023-03-01T23:21:57.296Z,-4.24
2023-03-01T23:24:31.881Z,-4.29
2023-03-01T23:27:03.047Z,-4.30
2023-03-01T23:29:31.314Z,-4.34
2023-03-01T23:31:59.879Z,-4.33
2023-03-01T23:34:27.493Z,-4.36
2023-03-01T23:36:55.755Z,-4.41
2023-03-01T23:39:22.781Z,-4.41
2023-03-01T23:41:50.200Z,-4.42
2023-03-01T23:44:19.536Z,-4.44
2023-03-01T23:46:47.961Z,-4.39
2023-03-01T23:49:18.787Z,-4.38
2023-03-01T23:51:49.703Z,-4.34
2023-03-01T23:54:22.028Z,-4.28
2023-03-01T23:56:49.360Z,-4.23
2023-03-01T23:59:19.253Z,-4.20
